Pagina principală
METAR-TAF:

METAR-TAF

Aeroporturi :

Panama Pacifico, Panama

Latitudine: 08-55N, longitudine: 079-36W, elevație: 16 m

Observații meteo curente

Raportul a fost făcut în urmă cu 1 oră și 51 de minute, la 03:00 UTC
Vânt 5 kt de la Nord-vest
Temperatură 27°C
Umiditate 74%
Presiune 1011 hPa
Vizibilitate de 10 km sau mai mult
Nori puțini la o înălțime de 2000 picior

METAR: MPPA 140300Z 32005KT 9999 FEW020 27/22 Q1011

Ora: 23:51 (04:51 UTC)

Prognoză

Prognoză valabilă de la 13 ora 17 UTC la 14 ora 00 UTC
Vânt 7 kt de la Nord
Vizibilitate de 10 km sau mai mult
Nori împrăștiați la o înălțime de 1800 picior
Temporar
de la 13 ora 18 UTC la 13 ora 22 UTC
Vânt 17 kt de la Nord
Temporar
de la 14 ora 06 UTC la 14 ora 10 UTC
Vânt 2 kt din direcții variabile

TAF: MPPA 131700 1318/1424 35007KT 9999 SCT018 TEMPO 1318/1322 01017KT TEMPO 1406/1410 VRB02KT

Observații și prognoze meteo pentru peste 4.000 de aeroporturi (rapoarte METAR și TAF).

Stațiile disponibile sunt reprezentate pe hartă prin puncte galbene și roșii.

Țineți indicatorul mouse-ului pe punctul dorit pentru a vedea denumirea stației.

Apoi, faceți clic pentru a vedea observațiile și prognozele meteorologice.

Pentru a schimba harta: Pentru mărire, faceți clic pe butoanele verzi cu cruce neagră; pentru micșorare, pe butonul verde cu o liniuță; pentru hărți învecinate, pe săgețile verzi.


METAR-TAF: